Nearby METAR Reports

 

KCLM - Port Angeles, Washington, USA
Distance from station: W 17mi, 27km
Updated: Wed, 26-Apr-2017 11:53pm PDT
Clear
Clear
 Wind from W
Wind: W 12 mph , 19 km/h
Temperature: 45°F , 7°C
Wind Chill: 39°F , 4°C
Dew Point: 36°F , 2°C
Humidity: 71%
Barometer: 29.97 inHg , 1014.9 hPa
Clouds: Clear
Visibility: 10 miles , 16 km
2017/04/27 06:53 KCLM 270653Z AUTO 28010KT 10SM CLR 07/02 A2997 RMK AO2 SLP151 T00670022
CWQK - Race Rocks Autob, British Columbia, Canada
Distance from station: NW 23mi, 36km
Updated: Wed, 26-Apr-2017 11:00pm PDT

 Wind from W
Wind: W 32 mph , 52 km/h, Gust: 39 mph , 63 km/h
Temperature: 46°F , 8°C
Wind Chill: 36°F , 2°C
Dew Point: 39°F , 4°C
Humidity: 76%
2017/04/27 06:00 CWQK 270600Z AUTO 26028G34KT 08/04 RMK AO1 PK WND 28041/0526 SLP136 T00790042 51020
 
KNUW - Whidbey Is. Nas, Washington, USA
Distance from station: NE 28mi, 45km
Updated: Wed, 26-Apr-2017 10:56pm PDT
Mostly cloudy
Mostly cloudy
 Wind from W
Wind: W 20 mph , 31 km/h, Gust: 31 mph , 50 km/h
Temperature: 48°F , 9°C
Wind Chill: 41°F , 5°C
Dew Point: 39°F , 4°C
Humidity: 71%
Barometer: 29.99 inHg , 1015.6 hPa
Clouds: Mostly cloudy
Visibility: 10 miles , 16 km
Cloud details: Partly cloudy 3000 ft
Mostly cloudy 6500 ft
Mostly cloudy 10000 ft
2017/04/27 05:56 KNUW 270556Z 27017G27KT 10SM SCT030 BKN065 BKN100 09/04 A2999 RMK AO2 PK WND 26027/0513 SLP154 T00940039 10128 20094 51022 $
KFHR - Friday Harbor, Washington, USA
Distance from station: N 29mi, 46km
Updated: Wed, 26-Apr-2017 11:53pm PDT
Clear
Clear
 Wind from varies
Wind: varies 6 mph , 9 km/h
Temperature: 46°F , 8°C
Wind Chill: 43°F , 6°C
Dew Point: 39°F , 4°C
Humidity: 76%
Barometer: 29.95 inHg , 1014.2 hPa
Clouds: Clear
Visibility: 10 miles , 16 km
2017/04/27 06:53 KFHR 270653Z AUTO VRB05KT 10SM CLR 08/04 A2995 RMK AO2 SLP143 T00780039 TSNO
 
KBVS - Burlington/Mt V, Washington, USA
Distance from station: NE 41mi, 66km
Updated: Wed, 26-Apr-2017 11:35pm PDT
Overcast
Overcast
 Wind from SW
Wind: SW 8 mph , 13 km/h, Gust: 15 mph , 24 km/h
Temperature: 46°F , 8°C
Wind Chill: 42°F , 6°C
Dew Point: 41°F , 5°C
Humidity: 82%
Barometer: 29.95 inHg , 1014.2 hPa
Clouds: Overcast
Visibility: 10 miles , 16 km
Cloud details: Overcast 5500 ft
2017/04/27 06:35 KBVS 270635Z AUTO 23007G13KT 200V270 10SM OVC055 08/05 A2995 RMK A01
KPAE - Everett, Washington, USA
Distance from station: ESE 42mi, 67km
Updated: Wed, 26-Apr-2017 11:53pm PDT
Overcast
Overcast
 Wind from varies
Wind: varies 3 mph , 6 km/h
Temperature: 43°F , 6°C
Dew Point: 41°F , 5°C
Humidity: 93%
Barometer: 29.98 inHg , 1015.2 hPa
Clouds: Overcast
Visibility: 10 miles , 16 km
Cloud details: Mostly cloudy 3100 ft
Mostly cloudy 7000 ft
Overcast 10000 ft
2017/04/27 06:53 KPAE 270653Z AUTO VRB03KT 10SM BKN031 BKN070 OVC100 06/05 A2998 RMK AO2 SLP156 T00610050
 
KORS - Eastsound/Orcas, Washington, USA
Distance from station: NNE 42mi, 68km
Updated: Wed, 26-Apr-2017 11:35pm PDT
Clear
Clear
 Wind from SSW
Wind: SSW 6 mph , 9 km/h
Temperature: 46°F , 8°C
Wind Chill: 43°F , 6°C
Dew Point: 37°F , 3°C
Humidity: 71%
Barometer: 29.92 inHg , 1013.2 hPa
Clouds: Clear
Visibility: 10 miles , 16 km
2017/04/27 06:35 KORS 270635Z AUTO 21005KT 10SM CLR 08/03 A2992 RMK AO2
KAWO - Arlington Muni, Washington, USA
Distance from station: E 45mi, 72km
Updated: Wed, 26-Apr-2017 11:35pm PDT
Overcast
Overcast
 Wind from WSW
Wind: WSW 3 mph , 6 km/h
Temperature: 45°F , 7°C
Dew Point: 36°F , 2°C
Humidity: 71%
Barometer: 30.00 inHg , 1015.9 hPa
Clouds: Overcast
Visibility: 10 miles , 16 km
Cloud details: Few Clouds 3000 ft
Partly cloudy 5500 ft
Overcast 7500 ft
2017/04/27 06:35 KAWO 270635Z AUTO 24003KT 10SM FEW030 SCT055 OVC075 07/02 A3000 RMK AO1
 
KPWT - Bremerton Ntnl, Washington, USA
Distance from station: SSE 46mi, 73km
Updated: Wed, 19-Apr-2017 4:55am PDT
NOT Current

 
2017/04/19 11:55 KPWT 191155Z AUTO RMK AO1